createdAt,value
2023-10-09T00:01:15.173Z,99051.59
2023-10-09T00:03:43.112Z,99052.84
2023-10-09T00:06:11.561Z,99047.38
2023-10-09T00:08:40.072Z,99041.47
2023-10-09T00:11:19.211Z,99043.19
2023-10-09T00:13:50.417Z,99043.72
2023-10-09T00:16:35.997Z,99045.16
2023-10-09T00:19:15.324Z,99034.88
2023-10-09T00:21:46.107Z,99029.13
2023-10-09T00:24:25.653Z,99031.28
2023-10-09T00:26:56.695Z,99027.44
2023-10-09T00:29:23.380Z,99024.19
2023-10-09T00:32:04.489Z,99016.28
2023-10-09T00:34:40.500Z,99009.44
2023-10-09T00:37:11.990Z,98995.47
2023-10-09T00:39:40.999Z,98986.84
2023-10-09T00:42:08.809Z,98997.31
2023-10-09T00:44:41.996Z,98983.09
2023-10-09T00:47:21.958Z,98986.44
2023-10-09T00:50:21.683Z,98985.81
2023-10-09T00:53:05.894Z,98987.78
2023-10-09T00:55:46.882Z,98980.03
2023-10-09T00:58:16.172Z,98978.72
2023-10-09T01:00:46.584Z,98973.19
2023-10-09T01:03:17.810Z,98977.28
2023-10-09T01:05:52.329Z,98964.06
2023-10-09T01:08:41.105Z,98962.34
2023-10-09T01:11:11.447Z,98974.53
2023-10-09T01:13:58.855Z,98970.47
2023-10-09T01:16:25.384Z,98965.19
2023-10-09T01:18:59.297Z,98977.31
2023-10-09T01:21:27.658Z,98977.63
2023-10-09T01:24:05.256Z,98971.63
2023-10-09T01:26:40.213Z,98977.56
2023-10-09T01:29:17.676Z,98977.28
2023-10-09T01:31:53.290Z,98976.44
2023-10-09T01:34:20.849Z,98978.28
2023-10-09T01:36:50.144Z,98974.19
2023-10-09T01:39:27.695Z,98965.72
2023-10-09T01:42:01.494Z,98961.22
2023-10-09T01:44:35.852Z,98976.16
2023-10-09T01:47:09.361Z,98970.31
2023-10-09T01:49:38.305Z,98969.13
2023-10-09T01:52:17.409Z,98969.22
2023-10-09T01:54:49.933Z,98972.72
2023-10-09T01:57:23.155Z,98967.53
2023-10-09T01:59:51.206Z,98971.06
2023-10-09T02:02:28.018Z,98977.56
2023-10-09T02:05:10.286Z,98964.88
2023-10-09T02:07:52.639Z,98969.84
2023-10-09T02:10:30.380Z,98960.00
2023-10-09T02:13:08.217Z,98966.19
2023-10-09T02:15:42.955Z,98962.34
2023-10-09T02:18:23.829Z,98963.72
2023-10-09T02:21:13.352Z,98962.69
2023-10-09T02:23:42.688Z,98948.50
2023-10-09T02:26:10.717Z,98948.59
2023-10-09T02:28:37.303Z,98939.31
2023-10-09T02:31:13.880Z,98942.94
2023-10-09T02:33:40.728Z,98939.69
2023-10-09T02:36:07.900Z,98943.09
2023-10-09T02:38:36.966Z,98946.41
2023-10-09T02:41:03.519Z,98944.22
2023-10-09T02:43:51.928Z,98931.91
2023-10-09T02:46:20.238Z,98929.66
2023-10-09T02:48:53.671Z,98926.16
2023-10-09T02:51:29.062Z,98929.41
2023-10-09T02:54:26.831Z,98919.34
2023-10-09T02:56:58.072Z,98915.91
2023-10-09T02:59:24.877Z,98914.91
2023-10-09T03:01:55.322Z,98909.75
2023-10-09T03:04:25.078Z,98899.25
2023-10-09T03:06:52.213Z,98900.50
2023-10-09T03:09:19.761Z,98893.34
2023-10-09T03:11:49.185Z,98892.91
2023-10-09T03:14:16.885Z,98900.91
2023-10-09T03:16:44.123Z,98890.25
2023-10-09T03:19:11.917Z,98889.66
2023-10-09T03:21:38.342Z,98889.22
2023-10-09T03:24:06.587Z,98886.91
2023-10-09T03:26:33.229Z,98883.75
2023-10-09T03:29:02.733Z,98887.13
2023-10-09T03:31:32.965Z,98890.72
2023-10-09T03:33:59.658Z,98892.72
2023-10-09T03:36:30.149Z,98890.16
2023-10-09T03:38:59.143Z,98897.25
2023-10-09T03:41:30.198Z,98900.72
2023-10-09T03:43:56.710Z,98902.91
2023-10-09T03:46:23.962Z,98908.06
2023-10-09T03:48:52.385Z,98906.50
2023-10-09T03:51:22.739Z,98899.91
2023-10-09T03:53:49.844Z,98905.50
2023-10-09T03:56:17.279Z,98895.25
2023-10-09T03:58:46.025Z,98893.97
2023-10-09T04:01:26.761Z,98888.88
2023-10-09T04:03:56.673Z,98888.38
2023-10-09T04:06:23.844Z,98892.28
2023-10-09T04:08:52.467Z,98892.81
2023-10-09T04:11:19.034Z,98889.47
2023-10-09T04:13:50.314Z,98889.63
2023-10-09T04:16:31.908Z,98888.59
2023-10-09T04:18:59.006Z,98888.59
2023-10-09T04:21:38.314Z,98885.66
2023-10-09T04:24:25.028Z,98879.38
2023-10-09T04:27:00.476Z,98884.38
2023-10-09T04:29:39.741Z,98885.47
2023-10-09T04:32:18.796Z,98890.91
2023-10-09T04:34:57.921Z,98901.50
2023-10-09T04:37:40.138Z,98898.25
2023-10-09T04:40:35.795Z,98893.66
2023-10-09T04:43:07.339Z,98890.72
2023-10-09T04:45:56.559Z,98890.75
2023-10-09T04:48:39.238Z,98893.31
2023-10-09T04:51:22.126Z,98898.75
2023-10-09T04:54:01.270Z,98897.56
2023-10-09T04:56:32.951Z,98899.06
2023-10-09T04:59:04.687Z,98893.41
2023-10-09T05:01:44.868Z,98891.19
2023-10-09T05:04:28.579Z,98887.34
2023-10-09T05:06:58.048Z,98882.47
2023-10-09T05:09:25.187Z,98888.03
2023-10-09T05:11:54.639Z,98890.50
2023-10-09T05:14:28.169Z,98900.38
2023-10-09T05:16:55.866Z,98895.00
2023-10-09T05:19:41.885Z,98894.91
2023-10-09T05:22:30.498Z,98892.47
2023-10-09T05:25:01.869Z,98903.41
2023-10-09T05:27:47.029Z,98894.25
2023-10-09T05:30:28.567Z,98886.34
2023-10-09T05:32:59.349Z,98885.75
2023-10-09T05:35:40.819Z,98888.81
2023-10-09T05:38:30.756Z,98882.56
2023-10-09T05:41:17.181Z,98891.19
2023-10-09T05:44:02.252Z,98895.22
2023-10-09T05:46:36.642Z,98885.75
2023-10-09T05:49:11.059Z,98887.97
2023-10-09T05:51:43.500Z,98874.38
2023-10-09T05:54:13.499Z,98875.81
2023-10-09T05:56:58.430Z,98882.28
2023-10-09T05:59:43.123Z,98892.84
2023-10-09T06:02:42.743Z,98896.13
2023-10-09T06:05:35.175Z,98899.44
2023-10-09T06:08:13.988Z,98891.75
2023-10-09T06:10:41.816Z,98896.13
2023-10-09T06:13:28.023Z,98893.50
2023-10-09T06:16:10.920Z,98893.28
2023-10-09T06:18:44.525Z,98885.53
2023-10-09T06:21:31.359Z,98884.13
2023-10-09T06:24:16.668Z,98871.03
2023-10-09T06:27:05.047Z,98878.44
2023-10-09T06:29:52.252Z,98872.03
2023-10-09T06:32:20.023Z,98869.63
2023-10-09T06:34:57.876Z,98863.63
2023-10-09T06:37:25.157Z,98866.75
2023-10-09T06:39:56.760Z,98870.38
2023-10-09T06:42:34.591Z,98876.13
2023-10-09T06:45:14.505Z,98902.28
2023-10-09T06:47:57.876Z,98907.47
2023-10-09T06:50:43.796Z,98906.19
2023-10-09T06:53:10.191Z,98895.09
2023-10-09T06:55:49.806Z,98901.44
2023-10-09T06:58:28.307Z,98904.38
2023-10-09T07:00:56.057Z,98907.25
2023-10-09T07:03:30.900Z,98905.28
2023-10-09T07:06:10.677Z,98899.41
2023-10-09T07:08:58.993Z,98903.63
2023-10-09T07:11:40.701Z,98912.91
2023-10-09T07:14:07.949Z,98909.03
2023-10-09T07:16:57.862Z,98908.06
2023-10-09T07:20:03.947Z,98898.84
2023-10-09T07:22:40.437Z,98897.50
2023-10-09T07:25:28.634Z,98896.81
2023-10-09T07:27:56.628Z,98902.56
2023-10-09T07:30:32.197Z,98923.00
2023-10-09T07:33:11.697Z,98932.91
2023-10-09T07:35:49.145Z,98931.38
2023-10-09T07:38:29.831Z,98940.59
2023-10-09T07:41:03.445Z,98926.97
2023-10-09T07:43:44.748Z,98929.31
2023-10-09T07:46:31.502Z,98931.94
2023-10-09T07:49:09.952Z,98934.69
2023-10-09T07:51:44.812Z,98925.22
2023-10-09T07:54:15.745Z,98929.50
2023-10-09T07:56:46.880Z,98926.44
2023-10-09T07:59:15.179Z,98927.44
2023-10-09T08:02:03.618Z,98937.75
2023-10-09T08:04:59.963Z,98950.00
2023-10-09T08:08:05.753Z,98948.66
2023-10-09T08:10:21.764Z,98952.13
2023-10-09T08:12:48.246Z,98935.34
2023-10-09T08:15:20.411Z,98953.09
2023-10-09T08:17:57.762Z,98960.22
2023-10-09T08:20:28.297Z,98968.13
2023-10-09T08:22:57.918Z,98978.16
2023-10-09T08:25:29.356Z,98979.44
2023-10-09T08:28:20.578Z,98978.25
2023-10-09T08:30:50.601Z,98979.59
2023-10-09T08:36:02.955Z,98975.50
2023-10-09T08:38:34.300Z,98978.50
2023-10-09T08:41:18.074Z,98959.03
2023-10-09T08:43:52.081Z,98963.22
2023-10-09T08:46:27.978Z,98952.53
2023-10-09T08:49:00.169Z,98968.47
2023-10-09T08:51:28.521Z,98966.19
2023-10-09T08:53:57.033Z,98960.97
2023-10-09T08:56:23.845Z,98981.28
2023-10-09T08:58:52.347Z,98968.84
2023-10-09T09:01:22.845Z,98963.88
2023-10-09T09:03:51.575Z,98975.22
2023-10-09T09:06:21.498Z,98980.25
2023-10-09T09:08:48.558Z,98971.88
2023-10-09T09:11:18.755Z,98955.41
2023-10-09T09:14:07.666Z,98956.59
2023-10-09T09:16:37.751Z,98968.22
2023-10-09T09:19:18.725Z,98973.19
2023-10-09T09:21:56.250Z,98975.50
2023-10-09T09:24:26.542Z,98968.50
2023-10-09T09:27:01.792Z,98962.97
2023-10-09T09:29:40.130Z,98966.56
2023-10-09T09:32:18.772Z,98970.44
2023-10-09T09:35:05.567Z,98970.72
2023-10-09T09:37:44.297Z,98975.13
2023-10-09T09:40:32.185Z,98973.56
2023-10-09T09:43:05.851Z,98977.59
2023-10-09T09:45:34.428Z,98991.81
2023-10-09T09:48:07.050Z,98996.81
2023-10-09T09:50:34.572Z,98998.75
2023-10-09T09:53:01.221Z,98998.94
2023-10-09T09:55:35.067Z,99001.47
2023-10-09T09:58:07.439Z,98968.72
2023-10-09T10:00:41.888Z,98961.47
2023-10-09T10:03:19.603Z,98981.00
2023-10-09T10:05:49.998Z,98964.84
2023-10-09T10:08:21.576Z,98956.34
2023-10-09T10:10:51.157Z,98972.69
2023-10-09T10:13:24.124Z,98971.06
2023-10-09T10:15:57.844Z,98977.19
2023-10-09T10:18:24.857Z,98973.78
2023-10-09T10:21:17.332Z,98975.63
2023-10-09T10:23:48.581Z,99018.69
2023-10-09T10:26:22.123Z,99004.63
2023-10-09T10:29:23.533Z,98986.28
2023-10-09T10:31:53.085Z,98968.28
2023-10-09T10:34:24.805Z,98961.78
2023-10-09T10:36:59.265Z,98957.81
2023-10-09T10:39:45.243Z,98940.50
2023-10-09T10:42:34.969Z,98920.84
2023-10-09T10:45:30.940Z,98914.69
2023-10-09T10:47:59.889Z,98916.34
2023-10-09T10:50:32.230Z,98914.19
2023-10-09T10:53:17.000Z,98910.00
2023-10-09T10:56:18.866Z,98898.59
2023-10-09T10:59:01.608Z,98890.31
2023-10-09T11:01:54.775Z,98886.28
2023-10-09T11:04:26.324Z,98896.69
2023-10-09T11:06:53.008Z,98882.34
2023-10-09T11:09:22.907Z,98891.38
2023-10-09T11:11:51.230Z,98886.56
2023-10-09T11:14:24.392Z,98889.47
2023-10-09T11:16:51.675Z,98890.72
2023-10-09T11:19:28.406Z,98883.41
2023-10-09T11:22:00.124Z,98881.72
2023-10-09T11:24:34.334Z,98876.47
2023-10-09T11:27:19.765Z,98868.59
2023-10-09T11:29:52.931Z,98868.31
2023-10-09T11:32:27.029Z,98858.97
2023-10-09T11:35:16.495Z,98854.81
2023-10-09T11:37:45.597Z,98857.28
2023-10-09T11:40:48.864Z,98860.19
2023-10-09T11:43:15.631Z,98851.16
2023-10-09T11:45:55.404Z,98843.38
2023-10-09T11:48:43.019Z,98833.16
2023-10-09T11:51:22.632Z,98848.34
2023-10-09T11:53:55.790Z,98847.94
2023-10-09T11:56:28.223Z,98827.25
2023-10-09T11:58:55.730Z,98836.81
2023-10-09T12:01:23.332Z,98835.03
2023-10-09T12:03:51.868Z,98836.81
2023-10-09T12:06:20.265Z,98836.88
2023-10-09T12:08:50.284Z,98833.19
2023-10-09T12:11:24.919Z,98839.53
2023-10-09T12:13:57.449Z,98839.75
2023-10-09T12:16:29.142Z,98843.31
2023-10-09T12:18:56.385Z,98846.00
2023-10-09T12:21:24.459Z,98837.13
2023-10-09T12:23:51.317Z,98834.78
2023-10-09T12:26:17.922Z,98823.06
2023-10-09T12:28:47.374Z,98837.50
2023-10-09T12:31:21.353Z,98833.25
2023-10-09T12:33:52.649Z,98833.56
2023-10-09T12:36:20.881Z,98839.94
2023-10-09T12:38:53.196Z,98825.69
2023-10-09T12:41:34.829Z,98833.47
2023-10-09T12:44:02.475Z,98838.28
2023-10-09T12:46:33.876Z,98831.97
2023-10-09T12:49:02.236Z,98824.16
2023-10-09T12:51:31.998Z,98831.44
2023-10-09T12:53:58.923Z,98836.28
2023-10-09T12:56:34.037Z,98827.28
2023-10-09T12:59:02.947Z,98830.88
2023-10-09T13:01:43.628Z,98823.91
2023-10-09T13:04:23.261Z,98833.50
2023-10-09T13:06:54.827Z,98833.44
2023-10-09T13:09:35.746Z,98836.88
2023-10-09T13:12:02.614Z,98833.25
2023-10-09T13:14:29.782Z,98828.28
2023-10-09T13:16:57.181Z,98836.03
2023-10-09T13:19:25.565Z,98821.09
2023-10-09T13:21:52.425Z,98829.66
2023-10-09T13:24:19.209Z,98823.69
2023-10-09T13:29:16.806Z,98823.44
2023-10-09T13:31:47.746Z,98816.03
2023-10-09T13:34:16.547Z,98819.47
2023-10-09T13:36:56.716Z,98818.56
2023-10-09T13:39:23.238Z,98815.66
2023-10-09T13:41:54.468Z,98821.97
2023-10-09T13:44:20.933Z,98830.72
2023-10-09T13:46:51.642Z,98826.56
2023-10-09T13:49:19.165Z,98833.72
2023-10-09T13:51:45.884Z,98829.47
2023-10-09T13:54:21.699Z,98826.78
2023-10-09T13:56:54.888Z,98833.97
2023-10-09T13:59:23.623Z,98836.44
2023-10-09T14:01:51.125Z,98833.09
2023-10-09T14:04:20.266Z,98840.81
2023-10-09T14:06:48.176Z,98841.03
2023-10-09T14:09:29.579Z,98833.41
2023-10-09T14:12:07.214Z,98839.66
2023-10-09T14:14:48.112Z,98852.28
2023-10-09T14:17:26.235Z,98854.59
2023-10-09T14:19:54.567Z,98862.81
2023-10-09T14:22:22.055Z,98864.09
2023-10-09T14:24:56.295Z,98873.69
2023-10-09T14:27:27.174Z,98869.69
2023-10-09T14:30:00.436Z,98875.97
2023-10-09T14:32:35.261Z,98873.56
2023-10-09T14:35:02.530Z,98867.75
2023-10-09T14:37:29.426Z,98867.84
2023-10-09T14:39:59.984Z,98867.38
2023-10-09T14:42:28.906Z,98875.13
2023-10-09T14:44:56.716Z,98870.72
2023-10-09T14:47:23.817Z,98860.13
2023-10-09T14:49:50.417Z,98859.31
2023-10-09T14:52:21.375Z,98870.41
2023-10-09T14:54:48.638Z,98863.66
2023-10-09T14:57:16.119Z,98856.97
2023-10-09T14:59:45.802Z,98860.72
2023-10-09T15:02:13.642Z,98863.63
2023-10-09T15:04:40.925Z,98873.72
2023-10-09T15:07:08.143Z,98865.97
2023-10-09T15:09:37.257Z,98873.31
2023-10-09T15:12:07.428Z,98871.25
2023-10-09T15:14:34.915Z,98864.31
2023-10-09T15:17:01.966Z,98848.34
2023-10-09T15:19:31.214Z,98836.16
2023-10-09T15:21:59.918Z,98844.94
2023-10-09T15:24:28.867Z,98859.75
2023-10-09T15:26:59.142Z,98856.00
2023-10-09T15:29:31.536Z,98869.97
2023-10-09T15:32:15.579Z,98861.81
2023-10-09T15:34:42.533Z,98863.97
2023-10-09T15:37:09.014Z,98849.53
2023-10-09T15:39:36.510Z,98849.31
2023-10-09T15:42:07.702Z,98861.84
2023-10-09T15:44:37.658Z,98863.34
2023-10-09T15:47:09.358Z,98865.66
2023-10-09T15:49:42.440Z,98862.09
2023-10-09T15:52:09.917Z,98845.69
2023-10-09T15:54:36.454Z,98844.66
2023-10-09T15:57:13.229Z,98852.16
2023-10-09T15:59:40.652Z,98852.59
2023-10-09T16:02:07.156Z,98847.56
2023-10-09T16:04:35.142Z,98850.06
2023-10-09T16:07:02.521Z,98855.88
2023-10-09T16:09:30.766Z,98863.00
2023-10-09T16:11:57.370Z,98852.53
2023-10-09T16:14:24.499Z,98858.78
2023-10-09T16:16:51.633Z,98859.81
2023-10-09T16:19:18.657Z,98857.56
2023-10-09T16:21:45.214Z,98875.84
2023-10-09T16:24:11.854Z,98880.66
2023-10-09T16:26:42.720Z,98873.34
2023-10-09T16:29:10.943Z,98871.69
2023-10-09T16:31:41.109Z,98875.44
2023-10-09T16:34:08.450Z,98877.47
2023-10-09T16:36:36.313Z,98873.69
2023-10-09T16:39:04.026Z,98874.97
2023-10-09T16:41:35.999Z,98879.72
2023-10-09T16:44:06.038Z,98876.81
2023-10-09T16:46:32.969Z,98880.53
2023-10-09T16:49:05.310Z,98886.16
2023-10-09T16:51:31.924Z,98888.00
2023-10-09T16:54:00.018Z,98892.81
2023-10-09T16:56:32.523Z,98889.59
2023-10-09T16:58:59.050Z,98887.56
2023-10-09T17:01:28.592Z,98894.84
2023-10-09T17:03:56.218Z,98896.31
2023-10-09T17:06:22.961Z,98897.72
2023-10-09T17:08:51.950Z,98901.34
2023-10-09T17:11:21.743Z,98899.66
2023-10-09T17:13:50.317Z,98892.75
2023-10-09T17:16:19.152Z,98887.16
2023-10-09T17:18:56.931Z,98892.72
2023-10-09T17:21:24.349Z,98891.06
2023-10-09T17:23:54.826Z,98886.91
2023-10-09T17:26:23.814Z,98888.63
2023-10-09T17:28:53.281Z,98888.75
2023-10-09T17:31:27.010Z,98898.19
2023-10-09T17:33:56.691Z,98895.44
2023-10-09T17:36:23.615Z,98902.34
2023-10-09T17:38:53.209Z,98897.06
2023-10-09T17:41:24.008Z,98903.09
2023-10-09T17:43:53.729Z,98901.03
2023-10-09T17:46:20.361Z,98906.66
2023-10-09T17:48:47.054Z,98898.44
2023-10-09T17:51:15.757Z,98905.25
2023-10-09T17:53:43.913Z,98914.34
2023-10-09T17:56:10.597Z,98906.06
2023-10-09T17:58:37.458Z,98913.44
2023-10-09T18:01:07.703Z,98915.53
2023-10-09T18:03:34.934Z,98909.59
2023-10-09T18:06:01.484Z,98906.19
2023-10-09T18:08:28.019Z,98922.81
2023-10-09T18:10:58.515Z,98925.69
2023-10-09T18:13:27.947Z,98931.25
2023-10-09T18:16:17.177Z,98932.16
2023-10-09T18:18:54.150Z,98931.47
2023-10-09T18:21:21.335Z,98924.19
2023-10-09T18:23:49.207Z,98923.84
2023-10-09T18:26:16.359Z,98934.09
2023-10-09T18:28:46.164Z,98929.84
2023-10-09T18:31:14.786Z,98933.09
2023-10-09T18:33:44.367Z,98938.31
2023-10-09T18:36:12.257Z,98938.03
2023-10-09T18:38:39.782Z,98933.22
2023-10-09T18:41:09.409Z,98942.50
2023-10-09T18:43:42.994Z,98944.72
2023-10-09T18:46:11.811Z,98943.53
2023-10-09T18:48:38.911Z,98947.69
2023-10-09T18:51:05.859Z,98949.56
2023-10-09T18:53:32.891Z,98957.63
2023-10-09T18:56:02.553Z,98941.28
2023-10-09T18:58:29.129Z,98939.59
2023-10-09T19:01:03.056Z,98949.81
2023-10-09T19:03:30.077Z,98946.22
2023-10-09T19:05:57.367Z,98944.81
2023-10-09T19:08:24.159Z,98950.69
2023-10-09T19:11:00.323Z,98956.16
2023-10-09T19:13:27.074Z,98945.19
2023-10-09T19:15:53.625Z,98960.34
2023-10-09T19:18:20.512Z,98958.72
2023-10-09T19:20:47.745Z,98958.91
2023-10-09T19:23:14.311Z,98953.81
2023-10-09T19:25:44.350Z,98952.06
2023-10-09T19:28:13.225Z,98958.63
2023-10-09T19:30:39.842Z,98966.06
2023-10-09T19:33:06.914Z,98963.66
2023-10-09T19:35:36.217Z,98967.44
2023-10-09T19:38:02.789Z,98967.97
2023-10-09T19:40:30.945Z,98962.00
2023-10-09T19:42:59.327Z,98967.91
2023-10-09T19:45:25.845Z,98969.88
2023-10-09T19:47:52.423Z,98965.56
2023-10-09T19:50:19.121Z,98963.34
2023-10-09T19:52:46.582Z,98968.13
2023-10-09T19:55:13.573Z,98968.69
2023-10-09T19:57:42.971Z,98975.50
2023-10-09T20:00:21.844Z,98975.03
2023-10-09T20:02:54.719Z,98977.34
2023-10-09T20:05:21.929Z,98979.91
2023-10-09T20:07:49.767Z,98981.59
2023-10-09T20:10:19.541Z,98979.78
2023-10-09T20:12:46.560Z,98978.88
2023-10-09T20:15:14.419Z,98975.22
2023-10-09T20:17:44.770Z,98981.63
2023-10-09T20:20:12.798Z,98993.66
2023-10-09T20:22:40.462Z,98996.53
2023-10-09T20:25:18.273Z,99006.94
2023-10-09T20:27:44.687Z,99005.44
2023-10-09T20:30:12.362Z,99005.94
2023-10-09T20:32:42.271Z,99005.41
2023-10-09T20:35:13.296Z,99008.44
2023-10-09T20:37:44.443Z,99007.28
2023-10-09T20:40:21.650Z,99009.66
2023-10-09T20:42:50.282Z,99006.63
2023-10-09T20:45:19.824Z,99003.28
2023-10-09T20:47:57.113Z,99008.63
2023-10-09T20:50:26.385Z,99007.78
2023-10-09T20:52:54.120Z,99001.28
2023-10-09T20:55:24.346Z,99014.06
2023-10-09T20:57:57.688Z,99021.81
2023-10-09T21:00:25.879Z,99024.31
2023-10-09T21:02:53.871Z,99023.81
2023-10-09T21:05:21.910Z,99019.47
2023-10-09T21:07:49.451Z,99015.94
2023-10-09T21:10:16.347Z,99009.53
2023-10-09T21:12:43.457Z,99009.56
2023-10-09T21:15:11.490Z,99017.78
2023-10-09T21:17:41.464Z,99019.81
2023-10-09T21:20:17.315Z,99017.47
2023-10-09T21:22:51.285Z,99019.78
2023-10-09T21:25:21.575Z,99019.78
2023-10-09T21:27:58.075Z,99019.63
2023-10-09T21:30:25.662Z,99016.72
2023-10-09T21:32:54.705Z,99018.59
2023-10-09T21:35:28.326Z,99023.94
2023-10-09T21:37:57.066Z,99025.94
2023-10-09T21:40:30.236Z,99024.25
2023-10-09T21:43:07.269Z,99023.75
2023-10-09T21:45:40.809Z,99021.25
2023-10-09T21:48:10.422Z,99021.19
2023-10-09T21:50:38.155Z,99016.34
2023-10-09T21:53:05.822Z,99020.19
2023-10-09T21:55:34.979Z,99021.19
2023-10-09T21:58:02.797Z,99024.97
2023-10-09T22:00:37.194Z,99022.97
2023-10-09T22:03:08.631Z,99016.84
2023-10-09T22:05:42.751Z,99024.13
2023-10-09T22:08:14.536Z,99022.78
2023-10-09T22:10:42.674Z,99027.66
2023-10-09T22:13:09.267Z,99020.09
2023-10-09T22:18:10.628Z,99007.72
2023-10-09T22:20:37.171Z,99015.28
2023-10-09T22:23:04.391Z,99020.63
2023-10-09T22:25:31.232Z,99017.94
2023-10-09T22:28:03.061Z,99022.66
2023-10-09T22:30:35.659Z,99015.75
2023-10-09T22:33:13.167Z,99022.09
2023-10-09T22:35:45.994Z,99013.34
2023-10-09T22:38:13.590Z,99013.97
2023-10-09T22:40:40.642Z,98998.38
2023-10-09T22:43:11.963Z,99010.28
2023-10-09T22:45:50.222Z,99010.19
2023-10-09T22:48:18.113Z,99001.25
2023-10-09T22:50:46.754Z,99004.66
2023-10-09T22:53:33.955Z,99006.81
2023-10-09T22:56:02.447Z,99014.00
2023-10-09T22:58:30.997Z,99007.16
2023-10-09T23:01:01.224Z,99021.56
2023-10-09T23:03:29.257Z,99010.63
2023-10-09T23:05:58.470Z,99012.69
2023-10-09T23:08:26.981Z,99012.59
2023-10-09T23:10:54.667Z,99010.34
2023-10-09T23:13:30.196Z,99015.69
2023-10-09T23:16:09.113Z,99018.69
2023-10-09T23:19:05.944Z,99015.34
2023-10-09T23:21:52.338Z,99021.72
2023-10-09T23:24:29.103Z,99021.56
2023-10-09T23:26:56.637Z,99021.97
2023-10-09T23:29:30.749Z,99028.16
2023-10-09T23:32:34.322Z,99022.13
2023-10-09T23:35:00.957Z,99015.31
2023-10-09T23:37:38.669Z,99023.13
2023-10-09T23:40:13.838Z,99027.88
2023-10-09T23:42:40.653Z,99028.47
2023-10-09T23:45:07.907Z,99025.81
2023-10-09T23:47:35.498Z,99025.03
2023-10-09T23:50:02.275Z,99025.03
2023-10-09T23:52:33.386Z,99027.69
2023-10-09T23:55:03.248Z,99027.09
2023-10-09T23:57:42.845Z,99027.94
